MEB weather

Melbourne Essendon Airport
Victoria, Australia

Public forecast

Using degrees Celsius for public forecast. Weather courtesy of forecast.io.

METAR (pilot weather report)

Retrieved 2018/07/18 10:00 UTC (6 minutes ago):

YMEN 181000Z AUTO 01012KT 9999 // SCT056 11/05 Q1013

TAF (pilot weather forecast)

Closest forecast is Melbourne International Airport, 4.3 nm (8.0 km) NW. Retrieved 2018/07/18 06:00 UTC (4 hours ago):

TAF YMML 180503Z 1806/1912 34020G32KT CAVOK FM180800 36016KT CAVOK BECMG 1811/1813 36022G32KT CAVOK FM190400 32015G25KT 9999 -SHRA FEW025 BKN035 INTER 1906/1910 4000 SHRA BKN020